Terminal Aerodrome Forecast
Issued by NWS Green Bay, WI

Home | Current Version | Previous Version | Graphics & Text | Print | Product List | Glossary On
Versions: 1 2 3 4 5 6 7 8 9 10 11 12 13 14 15 16 17 18 19 20 21 22 23 24 25 26 27 28 29 30 31 32 33 34 35 36 37 38 39 40
000
FTUS43 KGRB 291100
TAFGRB
TAF
KGRB 291139Z 2912/3012 VRB03KT 5SM BR SCT006 BKN070
     FM291430 04014G22KT P6SM BKN010 OVC060
     FM291700 01010G18KT P6SM BKN012 OVC030
      TEMPO 2917/2921 5SM -SHRA BR
     FM300200 04018G27KT P6SM SCT007 OVC012
     FM300900 35009G17KT P6SM BKN018 OVC025=

USA.gov is the U.S. government's official web portal to all federal, state and local government web resources and services.